sensor_id;sensor_type;location;lat;lon;timestamp;P1;durP1;ratioP1;P2;durP2;ratioP2
22632;SDS011;11483;55.828;37.488;2023-05-07T00:00:37;5.50;;;3.03;;
22632;SDS011;11483;55.828;37.488;2023-05-07T00:03:03;4.83;;;2.57;;
22632;SDS011;11483;55.828;37.488;2023-05-07T00:05:29;6.80;;;3.20;;
22632;SDS011;11483;55.828;37.488;2023-05-07T00:07:55;8.90;;;3.70;;
22632;SDS011;11483;55.828;37.488;2023-05-07T00:10:21;5.00;;;2.87;;
22632;SDS011;11483;55.828;37.488;2023-05-07T00:12:47;9.13;;;3.00;;
22632;SDS011;11483;55.828;37.488;2023-05-07T00:15:13;7.53;;;3.37;;
22632;SDS011;11483;55.828;37.488;2023-05-07T00:17:38;10.47;;;3.53;;
22632;SDS011;11483;55.828;37.488;2023-05-07T00:20:04;7.23;;;3.03;;
22632;SDS011;11483;55.828;37.488;2023-05-07T00:22:31;8.30;;;3.43;;
22632;SDS011;11483;55.828;37.488;2023-05-07T00:24:57;6.80;;;3.17;;
22632;SDS011;11483;55.828;37.488;2023-05-07T00:27:24;5.10;;;3.10;;
22632;SDS011;11483;55.828;37.488;2023-05-07T00:29:50;9.67;;;3.70;;
22632;SDS011;11483;55.828;37.488;2023-05-07T00:32:16;8.53;;;3.00;;
22632;SDS011;11483;55.828;37.488;2023-05-07T00:34:42;7.17;;;3.23;;
22632;SDS011;11483;55.828;37.488;2023-05-07T00:37:09;4.93;;;2.77;;
22632;SDS011;11483;55.828;37.488;2023-05-07T00:39:35;9.43;;;3.07;;
22632;SDS011;11483;55.828;37.488;2023-05-07T00:42:01;5.50;;;2.60;;
22632;SDS011;11483;55.828;37.488;2023-05-07T00:44:28;7.10;;;3.30;;
22632;SDS011;11483;55.828;37.488;2023-05-07T00:46:55;6.30;;;3.00;;
22632;SDS011;11483;55.828;37.488;2023-05-07T00:49:26;4.63;;;2.40;;
22632;SDS011;11483;55.828;37.488;2023-05-07T00:52:02;7.27;;;3.40;;
22632;SDS011;11483;55.828;37.488;2023-05-07T00:54:28;5.53;;;2.53;;
22632;SDS011;11483;55.828;37.488;2023-05-07T00:56:54;6.10;;;3.37;;
22632;SDS011;11483;55.828;37.488;2023-05-07T00:59:21;5.73;;;2.63;;
22632;SDS011;11483;55.828;37.488;2023-05-07T01:01:47;12.00;;;2.93;;
22632;SDS011;11483;55.828;37.488;2023-05-07T01:04:13;6.17;;;3.03;;
22632;SDS011;11483;55.828;37.488;2023-05-07T01:06:38;9.40;;;2.90;;
22632;SDS011;11483;55.828;37.488;2023-05-07T01:09:05;5.87;;;2.97;;
22632;SDS011;11483;55.828;37.488;2023-05-07T01:11:31;5.37;;;2.60;;
22632;SDS011;11483;55.828;37.488;2023-05-07T01:13:58;6.70;;;3.23;;
22632;SDS011;11483;55.828;37.488;2023-05-07T01:16:25;8.03;;;3.17;;
22632;SDS011;11483;55.828;37.488;2023-05-07T01:18:51;16.00;;;3.77;;
22632;SDS011;11483;55.828;37.488;2023-05-07T01:21:17;10.00;;;4.67;;
22632;SDS011;11483;55.828;37.488;2023-05-07T01:23:46;11.53;;;5.10;;
22632;SDS011;11483;55.828;37.488;2023-05-07T01:26:12;14.23;;;5.73;;
22632;SDS011;11483;55.828;37.488;2023-05-07T01:28:38;16.47;;;6.20;;
22632;SDS011;11483;55.828;37.488;2023-05-07T01:31:04;11.50;;;5.10;;
22632;SDS011;11483;55.828;37.488;2023-05-07T01:33:32;13.37;;;5.17;;
22632;SDS011;11483;55.828;37.488;2023-05-07T01:36:00;9.00;;;4.33;;
22632;SDS011;11483;55.828;37.488;2023-05-07T01:38:28;10.33;;;4.47;;
22632;SDS011;11483;55.828;37.488;2023-05-07T01:40:55;7.53;;;3.60;;
22632;SDS011;11483;55.828;37.488;2023-05-07T01:43:22;6.07;;;3.40;;
22632;SDS011;11483;55.828;37.488;2023-05-07T01:45:48;13.80;;;4.10;;
22632;SDS011;11483;55.828;37.488;2023-05-07T01:48:15;8.43;;;3.60;;
22632;SDS011;11483;55.828;37.488;2023-05-07T01:50:41;9.23;;;3.63;;
22632;SDS011;11483;55.828;37.488;2023-05-07T01:53:08;7.70;;;2.83;;
22632;SDS011;11483;55.828;37.488;2023-05-07T01:55:34;9.83;;;3.57;;
22632;SDS011;11483;55.828;37.488;2023-05-07T01:58:02;7.20;;;2.87;;
22632;SDS011;11483;55.828;37.488;2023-05-07T02:00:28;6.97;;;3.47;;
22632;SDS011;11483;55.828;37.488;2023-05-07T02:02:54;5.93;;;3.37;;
22632;SDS011;11483;55.828;37.488;2023-05-07T02:05:20;6.13;;;3.53;;
22632;SDS011;11483;55.828;37.488;2023-05-07T02:07:46;13.53;;;4.67;;
22632;SDS011;11483;55.828;37.488;2023-05-07T02:10:12;7.87;;;3.90;;
22632;SDS011;11483;55.828;37.488;2023-05-07T02:12:37;9.30;;;5.23;;
22632;SDS011;11483;55.828;37.488;2023-05-07T02:15:03;8.73;;;5.23;;
22632;SDS011;11483;55.828;37.488;2023-05-07T02:17:30;8.87;;;4.93;;
22632;SDS011;11483;55.828;37.488;2023-05-07T02:19:59;10.27;;;5.23;;
22632;SDS011;11483;55.828;37.488;2023-05-07T02:22:25;10.70;;;4.87;;
22632;SDS011;11483;55.828;37.488;2023-05-07T02:24:51;9.83;;;4.93;;
22632;SDS011;11483;55.828;37.488;2023-05-07T02:27:16;13.40;;;5.30;;
22632;SDS011;11483;55.828;37.488;2023-05-07T02:29:42;9.80;;;5.27;;
22632;SDS011;11483;55.828;37.488;2023-05-07T02:32:08;11.83;;;5.03;;
22632;SDS011;11483;55.828;37.488;2023-05-07T02:34:34;9.10;;;4.77;;
22632;SDS011;11483;55.828;37.488;2023-05-07T02:37:00;13.67;;;5.37;;
22632;SDS011;11483;55.828;37.488;2023-05-07T02:39:26;9.50;;;4.57;;
22632;SDS011;11483;55.828;37.488;2023-05-07T02:41:51;7.80;;;4.60;;
22632;SDS011;11483;55.828;37.488;2023-05-07T02:44:17;14.20;;;3.73;;
22632;SDS011;11483;55.828;37.488;2023-05-07T02:46:43;6.50;;;3.53;;
22632;SDS011;11483;55.828;37.488;2023-05-07T02:49:09;6.87;;;3.90;;
22632;SDS011;11483;55.828;37.488;2023-05-07T02:51:35;7.23;;;3.80;;
22632;SDS011;11483;55.828;37.488;2023-05-07T02:54:01;5.23;;;3.13;;
22632;SDS011;11483;55.828;37.488;2023-05-07T02:56:26;8.40;;;3.50;;
22632;SDS011;11483;55.828;37.488;2023-05-07T02:58:52;10.50;;;3.90;;
22632;SDS011;11483;55.828;37.488;2023-05-07T03:01:18;8.43;;;3.37;;
22632;SDS011;11483;55.828;37.488;2023-05-07T03:03:45;5.93;;;2.90;;
22632;SDS011;11483;55.828;37.488;2023-05-07T03:06:11;8.13;;;3.60;;
22632;SDS011;11483;55.828;37.488;2023-05-07T03:08:37;8.63;;;3.60;;
22632;SDS011;11483;55.828;37.488;2023-05-07T03:11:03;8.67;;;3.40;;
22632;SDS011;11483;55.828;37.488;2023-05-07T03:13:30;6.87;;;3.23;;
22632;SDS011;11483;55.828;37.488;2023-05-07T03:15:55;6.80;;;3.20;;
22632;SDS011;11483;55.828;37.488;2023-05-07T03:18:21;7.20;;;3.10;;
22632;SDS011;11483;55.828;37.488;2023-05-07T03:20:48;5.70;;;3.37;;
22632;SDS011;11483;55.828;37.488;2023-05-07T03:23:13;6.00;;;2.97;;
22632;SDS011;11483;55.828;37.488;2023-05-07T03:25:39;13.00;;;3.17;;
22632;SDS011;11483;55.828;37.488;2023-05-07T03:28:05;5.37;;;2.90;;
22632;SDS011;11483;55.828;37.488;2023-05-07T03:30:31;5.30;;;2.73;;
22632;SDS011;11483;55.828;37.488;2023-05-07T03:32:57;4.03;;;2.73;;
22632;SDS011;11483;55.828;37.488;2023-05-07T03:35:22;3.53;;;2.40;;
22632;SDS011;11483;55.828;37.488;2023-05-07T03:37:48;4.30;;;2.80;;
22632;SDS011;11483;55.828;37.488;2023-05-07T03:40:14;3.17;;;1.83;;
22632;SDS011;11483;55.828;37.488;2023-05-07T03:42:40;5.77;;;2.60;;
22632;SDS011;11483;55.828;37.488;2023-05-07T03:45:06;5.03;;;2.97;;
22632;SDS011;11483;55.828;37.488;2023-05-07T03:47:32;6.67;;;2.83;;
22632;SDS011;11483;55.828;37.488;2023-05-07T03:49:58;8.23;;;3.83;;
22632;SDS011;11483;55.828;37.488;2023-05-07T03:52:24;7.83;;;2.40;;
22632;SDS011;11483;55.828;37.488;2023-05-07T03:54:51;5.30;;;2.37;;
22632;SDS011;11483;55.828;37.488;2023-05-07T03:57:18;5.63;;;2.87;;
22632;SDS011;11483;55.828;37.488;2023-05-07T03:59:44;5.23;;;2.67;;
22632;SDS011;11483;55.828;37.488;2023-05-07T04:02:09;7.77;;;2.70;;
22632;SDS011;11483;55.828;37.488;2023-05-07T04:04:35;5.87;;;2.83;;
22632;SDS011;11483;55.828;37.488;2023-05-07T04:07:01;10.33;;;2.83;;
22632;SDS011;11483;55.828;37.488;2023-05-07T04:09:28;6.20;;;2.73;;
22632;SDS011;11483;55.828;37.488;2023-05-07T04:11:53;3.60;;;2.30;;
22632;SDS011;11483;55.828;37.488;2023-05-07T04:14:19;4.33;;;2.40;;
22632;SDS011;11483;55.828;37.488;2023-05-07T04:16:45;6.63;;;2.20;;
22632;SDS011;11483;55.828;37.488;2023-05-07T04:19:11;4.07;;;2.47;;
22632;SDS011;11483;55.828;37.488;2023-05-07T04:21:37;4.10;;;2.57;;
22632;SDS011;11483;55.828;37.488;2023-05-07T04:24:03;4.67;;;2.70;;
22632;SDS011;11483;55.828;37.488;2023-05-07T04:26:29;5.13;;;2.63;;
22632;SDS011;11483;55.828;37.488;2023-05-07T04:28:55;4.00;;;2.07;;
22632;SDS011;11483;55.828;37.488;2023-05-07T04:31:22;3.77;;;2.37;;
22632;SDS011;11483;55.828;37.488;2023-05-07T04:33:48;3.90;;;2.20;;
22632;SDS011;11483;55.828;37.488;2023-05-07T04:36:15;7.50;;;2.40;;
22632;SDS011;11483;55.828;37.488;2023-05-07T04:38:41;5.30;;;2.60;;
22632;SDS011;11483;55.828;37.488;2023-05-07T04:41:08;5.80;;;2.20;;
22632;SDS011;11483;55.828;37.488;2023-05-07T04:43:34;8.37;;;1.70;;
22632;SDS011;11483;55.828;37.488;2023-05-07T04:46:00;3.60;;;1.97;;
22632;SDS011;11483;55.828;37.488;2023-05-07T04:48:26;3.77;;;2.20;;
22632;SDS011;11483;55.828;37.488;2023-05-07T04:50:53;3.10;;;1.60;;
22632;SDS011;11483;55.828;37.488;2023-05-07T04:53:19;1.77;;;1.67;;
22632;SDS011;11483;55.828;37.488;2023-05-07T04:55:45;3.60;;;2.10;;
22632;SDS011;11483;55.828;37.488;2023-05-07T04:58:11;2.07;;;1.40;;
22632;SDS011;11483;55.828;37.488;2023-05-07T05:00:37;2.33;;;1.70;;
22632;SDS011;11483;55.828;37.488;2023-05-07T05:03:04;1.87;;;1.57;;
22632;SDS011;11483;55.828;37.488;2023-05-07T05:05:32;4.00;;;1.80;;
22632;SDS011;11483;55.828;37.488;2023-05-07T05:07:58;4.77;;;1.80;;
22632;SDS011;11483;55.828;37.488;2023-05-07T05:10:24;2.53;;;1.40;;
22632;SDS011;11483;55.828;37.488;2023-05-07T05:12:50;2.60;;;1.80;;
22632;SDS011;11483;55.828;37.488;2023-05-07T05:15:16;1.33;;;1.20;;
22632;SDS011;11483;55.828;37.488;2023-05-07T05:17:42;1.80;;;1.40;;
22632;SDS011;11483;55.828;37.488;2023-05-07T05:20:08;2.40;;;1.70;;
22632;SDS011;11483;55.828;37.488;2023-05-07T05:22:35;1.70;;;1.17;;
22632;SDS011;11483;55.828;37.488;2023-05-07T05:25:01;3.93;;;1.90;;
22632;SDS011;11483;55.828;37.488;2023-05-07T05:27:28;7.57;;;1.80;;
22632;SDS011;11483;55.828;37.488;2023-05-07T05:29:54;2.20;;;1.17;;
22632;SDS011;11483;55.828;37.488;2023-05-07T05:32:20;2.93;;;2.00;;
22632;SDS011;11483;55.828;37.488;2023-05-07T05:34:45;3.73;;;1.60;;
22632;SDS011;11483;55.828;37.488;2023-05-07T05:37:11;2.40;;;1.30;;
22632;SDS011;11483;55.828;37.488;2023-05-07T05:39:37;1.43;;;1.30;;
22632;SDS011;11483;55.828;37.488;2023-05-07T05:42:03;2.70;;;1.67;;
22632;SDS011;11483;55.828;37.488;2023-05-07T05:44:29;1.67;;;1.33;;
22632;SDS011;11483;55.828;37.488;2023-05-07T05:46:55;3.20;;;1.70;;
22632;SDS011;11483;55.828;37.488;2023-05-07T05:49:22;2.03;;;1.30;;
22632;SDS011;11483;55.828;37.488;2023-05-07T05:51:48;2.33;;;1.27;;
22632;SDS011;11483;55.828;37.488;2023-05-07T05:54:14;4.00;;;1.70;;
22632;SDS011;11483;55.828;37.488;2023-05-07T05:56:41;1.80;;;1.30;;
22632;SDS011;11483;55.828;37.488;2023-05-07T05:59:07;3.13;;;1.57;;
22632;SDS011;11483;55.828;37.488;2023-05-07T06:01:33;1.87;;;1.50;;
22632;SDS011;11483;55.828;37.488;2023-05-07T06:03:59;1.47;;;1.33;;
22632;SDS011;11483;55.828;37.488;2023-05-07T06:06:25;3.03;;;1.80;;
22632;SDS011;11483;55.828;37.488;2023-05-07T06:08:52;3.00;;;1.93;;
22632;SDS011;11483;55.828;37.488;2023-05-07T06:11:18;1.43;;;1.30;;
22632;SDS011;11483;55.828;37.488;2023-05-07T06:13:44;3.20;;;1.55;;
22632;SDS011;11483;55.828;37.488;2023-05-07T06:16:10;2.65;;;1.60;;
22632;SDS011;11483;55.828;37.488;2023-05-07T06:18:35;2.60;;;1.50;;
22632;SDS011;11483;55.828;37.488;2023-05-07T06:21:01;1.88;;;1.45;;
22632;SDS011;11483;55.828;37.488;2023-05-07T06:23:27;2.28;;;1.60;;
22632;SDS011;11483;55.828;37.488;2023-05-07T06:25:53;3.05;;;1.50;;
22632;SDS011;11483;55.828;37.488;2023-05-07T06:28:19;2.60;;;1.90;;
22632;SDS011;11483;55.828;37.488;2023-05-07T06:30:45;5.18;;;1.92;;
22632;SDS011;11483;55.828;37.488;2023-05-07T06:33:11;4.15;;;1.60;;
22632;SDS011;11483;55.828;37.488;2023-05-07T06:35:36;1.52;;;1.42;;
22632;SDS011;11483;55.828;37.488;2023-05-07T06:38:02;2.35;;;1.50;;
22632;SDS011;11483;55.828;37.488;2023-05-07T06:40:28;2.95;;;1.50;;
22632;SDS011;11483;55.828;37.488;2023-05-07T06:42:54;2.65;;;1.67;;
22632;SDS011;11483;55.828;37.488;2023-05-07T06:45:20;1.83;;;1.60;;
22632;SDS011;11483;55.828;37.488;2023-05-07T06:47:46;1.02;;;0.90;;
22632;SDS011;11483;55.828;37.488;2023-05-07T06:50:12;2.67;;;1.30;;
22632;SDS011;11483;55.828;37.488;2023-05-07T06:52:38;1.67;;;1.25;;
22632;SDS011;11483;55.828;37.488;2023-05-07T06:55:04;1.77;;;1.50;;
22632;SDS011;11483;55.828;37.488;2023-05-07T06:57:30;1.23;;;1.10;;
22632;SDS011;11483;55.828;37.488;2023-05-07T06:59:56;2.53;;;1.55;;
22632;SDS011;11483;55.828;37.488;2023-05-07T07:02:22;1.33;;;1.10;;
22632;SDS011;11483;55.828;37.488;2023-05-07T07:04:48;1.42;;;0.93;;
22632;SDS011;11483;55.828;37.488;2023-05-07T07:07:14;1.77;;;1.48;;
22632;SDS011;11483;55.828;37.488;2023-05-07T07:09:39;2.97;;;1.10;;
22632;SDS011;11483;55.828;37.488;2023-05-07T07:12:05;1.20;;;1.10;;
22632;SDS011;11483;55.828;37.488;2023-05-07T07:14:31;2.72;;;1.42;;
22632;SDS011;11483;55.828;37.488;2023-05-07T07:16:57;2.03;;;1.38;;
22632;SDS011;11483;55.828;37.488;2023-05-07T07:19:23;4.13;;;1.38;;
22632;SDS011;11483;55.828;37.488;2023-05-07T07:21:49;1.23;;;1.10;;
22632;SDS011;11483;55.828;37.488;2023-05-07T07:24:15;2.97;;;1.50;;
22632;SDS011;11483;55.828;37.488;2023-05-07T07:26:44;1.40;;;1.30;;
22632;SDS011;11483;55.828;37.488;2023-05-07T07:29:10;2.53;;;1.58;;
22632;SDS011;11483;55.828;37.488;2023-05-07T07:31:36;1.35;;;1.20;;
22632;SDS011;11483;55.828;37.488;2023-05-07T07:34:01;2.58;;;1.40;;
22632;SDS011;11483;55.828;37.488;2023-05-07T07:36:27;2.63;;;1.30;;
22632;SDS011;11483;55.828;37.488;2023-05-07T07:38:53;1.40;;;1.30;;
22632;SDS011;11483;55.828;37.488;2023-05-07T07:41:19;1.70;;;1.10;;
22632;SDS011;11483;55.828;37.488;2023-05-07T07:43:45;1.00;;;1.00;;
22632;SDS011;11483;55.828;37.488;2023-05-07T07:46:11;3.97;;;1.55;;
22632;SDS011;11483;55.828;37.488;2023-05-07T07:48:37;1.67;;;1.30;;
22632;SDS011;11483;55.828;37.488;2023-05-07T07:51:04;1.80;;;1.10;;
22632;SDS011;11483;55.828;37.488;2023-05-07T07:53:30;1.73;;;1.17;;
22632;SDS011;11483;55.828;37.488;2023-05-07T07:55:55;2.72;;;1.27;;
22632;SDS011;11483;55.828;37.488;2023-05-07T07:58:21;2.80;;;1.20;;
22632;SDS011;11483;55.828;37.488;2023-05-07T08:00:47;1.48;;;1.15;;
22632;SDS011;11483;55.828;37.488;2023-05-07T08:03:13;2.78;;;1.30;;
22632;SDS011;11483;55.828;37.488;2023-05-07T08:05:41;4.13;;;1.67;;
22632;SDS011;11483;55.828;37.488;2023-05-07T08:08:08;1.13;;;1.02;;
22632;SDS011;11483;55.828;37.488;2023-05-07T08:10:34;1.45;;;1.20;;
22632;SDS011;11483;55.828;37.488;2023-05-07T08:13:03;1.83;;;1.45;;
22632;SDS011;11483;55.828;37.488;2023-05-07T08:15:29;3.03;;;1.50;;
22632;SDS011;11483;55.828;37.488;2023-05-07T08:17:55;1.55;;;1.40;;
22632;SDS011;11483;55.828;37.488;2023-05-07T08:20:22;2.42;;;0.98;;
22632;SDS011;11483;55.828;37.488;2023-05-07T08:22:48;1.40;;;1.25;;
22632;SDS011;11483;55.828;37.488;2023-05-07T08:25:14;3.30;;;1.10;;
22632;SDS011;11483;55.828;37.488;2023-05-07T08:27:40;1.55;;;1.30;;
22632;SDS011;11483;55.828;37.488;2023-05-07T08:30:06;1.55;;;1.25;;
22632;SDS011;11483;55.828;37.488;2023-05-07T08:32:33;2.10;;;1.55;;
22632;SDS011;11483;55.828;37.488;2023-05-07T08:34:59;1.90;;;1.30;;
22632;SDS011;11483;55.828;37.488;2023-05-07T08:37:25;3.55;;;1.10;;
22632;SDS011;11483;55.828;37.488;2023-05-07T08:39:51;1.30;;;1.20;;
22632;SDS011;11483;55.828;37.488;2023-05-07T08:42:17;1.30;;;1.20;;
22632;SDS011;11483;55.828;37.488;2023-05-07T08:44:44;1.38;;;1.27;;
22632;SDS011;11483;55.828;37.488;2023-05-07T08:47:12;1.92;;;1.00;;
22632;SDS011;11483;55.828;37.488;2023-05-07T08:49:38;1.10;;;1.00;;
22632;SDS011;11483;55.828;37.488;2023-05-07T08:52:04;2.20;;;1.20;;
22632;SDS011;11483;55.828;37.488;2023-05-07T08:54:30;1.83;;;1.10;;
22632;SDS011;11483;55.828;37.488;2023-05-07T08:56:56;3.13;;;1.58;;
22632;SDS011;11483;55.828;37.488;2023-05-07T08:59:22;1.10;;;1.00;;
22632;SDS011;11483;55.828;37.488;2023-05-07T09:01:48;1.45;;;1.35;;
22632;SDS011;11483;55.828;37.488;2023-05-07T09:04:14;1.52;;;1.17;;
22632;SDS011;11483;55.828;37.488;2023-05-07T09:06:40;1.38;;;1.27;;
22632;SDS011;11483;55.828;37.488;2023-05-07T09:09:07;2.15;;;1.40;;
22632;SDS011;11483;55.828;37.488;2023-05-07T09:11:33;2.88;;;1.33;;
22632;SDS011;11483;55.828;37.488;2023-05-07T09:13:59;1.98;;;1.30;;
22632;SDS011;11483;55.828;37.488;2023-05-07T09:16:28;1.10;;;1.00;;
22632;SDS011;11483;55.828;37.488;2023-05-07T09:18:56;1.58;;;1.20;;
22632;SDS011;11483;55.828;37.488;2023-05-07T09:21:24;1.52;;;1.17;;
22632;SDS011;11483;55.828;37.488;2023-05-07T09:23:50;3.72;;;1.38;;
22632;SDS011;11483;55.828;37.488;2023-05-07T09:26:17;1.88;;;1.30;;
22632;SDS011;11483;55.828;37.488;2023-05-07T09:28:45;7.38;;;1.20;;
22632;SDS011;11483;55.828;37.488;2023-05-07T09:31:11;2.10;;;1.33;;
22632;SDS011;11483;55.828;37.488;2023-05-07T09:33:38;1.15;;;1.05;;
22632;SDS011;11483;55.828;37.488;2023-05-07T09:36:05;4.70;;;1.20;;
22632;SDS011;11483;55.828;37.488;2023-05-07T09:38:32;3.13;;;1.25;;
22632;SDS011;11483;55.828;37.488;2023-05-07T09:43:32;6.07;;;1.20;;
22632;SDS011;11483;55.828;37.488;2023-05-07T09:46:05;3.25;;;1.35;;
22632;SDS011;11483;55.828;37.488;2023-05-07T09:48:37;3.30;;;1.30;;
22632;SDS011;11483;55.828;37.488;2023-05-07T09:51:29;1.38;;;1.27;;
22632;SDS011;11483;55.828;37.488;2023-05-07T09:53:54;1.48;;;1.10;;
22632;SDS011;11483;55.828;37.488;2023-05-07T09:56:22;1.33;;;1.23;;
22632;SDS011;11483;55.828;37.488;2023-05-07T09:58:49;2.33;;;1.58;;
22632;SDS011;11483;55.828;37.488;2023-05-07T10:01:17;2.55;;;1.50;;
22632;SDS011;11483;55.828;37.488;2023-05-07T10:06:13;2.72;;;1.50;;
22632;SDS011;11483;55.828;37.488;2023-05-07T10:08:40;5.05;;;1.30;;
22632;SDS011;11483;55.828;37.488;2023-05-07T10:16:03;2.90;;;1.50;;
22632;SDS011;11483;55.828;37.488;2023-05-07T10:18:30;1.60;;;1.02;;
22632;SDS011;11483;55.828;37.488;2023-05-07T10:21:07;7.63;;;1.30;;
22632;SDS011;11483;55.828;37.488;2023-05-07T10:23:36;1.48;;;1.27;;
22632;SDS011;11483;55.828;37.488;2023-05-07T10:26:04;3.63;;;1.30;;
22632;SDS011;11483;55.828;37.488;2023-05-07T10:28:34;4.35;;;1.35;;
22632;SDS011;11483;55.828;37.488;2023-05-07T10:33:51;2.42;;;1.30;;
22632;SDS011;11483;55.828;37.488;2023-05-07T10:36:20;2.10;;;1.83;;
22632;SDS011;11483;55.828;37.488;2023-05-07T10:38:47;1.73;;;1.48;;
22632;SDS011;11483;55.828;37.488;2023-05-07T10:41:13;1.50;;;1.40;;
22632;SDS011;11483;55.828;37.488;2023-05-07T10:43:42;1.60;;;1.50;;
22632;SDS011;11483;55.828;37.488;2023-05-07T10:46:09;3.30;;;1.30;;
22632;SDS011;11483;55.828;37.488;2023-05-07T10:49:12;1.90;;;1.30;;
22632;SDS011;11483;55.828;37.488;2023-05-07T10:56:42;5.20;;;1.30;;
22632;SDS011;11483;55.828;37.488;2023-05-07T11:01:58;1.50;;;1.40;;
22632;SDS011;11483;55.828;37.488;2023-05-07T11:04:29;1.40;;;1.30;;
22632;SDS011;11483;55.828;37.488;2023-05-07T11:15:11;1.73;;;1.38;;
22632;SDS011;11483;55.828;37.488;2023-05-07T11:17:56;1.83;;;1.20;;
22632;SDS011;11483;55.828;37.488;2023-05-07T11:23:55;3.33;;;1.40;;
22632;SDS011;11483;55.828;37.488;2023-05-07T11:30:55;1.70;;;1.40;;
22632;SDS011;11483;55.828;37.488;2023-05-07T11:33:22;1.75;;;1.35;;
22632;SDS011;11483;55.828;37.488;2023-05-07T11:35:50;7.05;;;1.30;;
22632;SDS011;11483;55.828;37.488;2023-05-07T11:38:21;4.10;;;1.50;;
22632;SDS011;11483;55.828;37.488;2023-05-07T11:40:54;2.08;;;1.38;;
22632;SDS011;11483;55.828;37.488;2023-05-07T11:43:26;3.53;;;1.58;;
22632;SDS011;11483;55.828;37.488;2023-05-07T11:45:52;1.48;;;1.30;;
22632;SDS011;11483;55.828;37.488;2023-05-07T11:48:18;2.72;;;1.40;;
22632;SDS011;11483;55.828;37.488;2023-05-07T11:50:54;2.33;;;1.45;;
22632;SDS011;11483;55.828;37.488;2023-05-07T11:53:27;3.53;;;1.77;;
22632;SDS011;11483;55.828;37.488;2023-05-07T11:56:16;3.85;;;1.65;;
22632;SDS011;11483;55.828;37.488;2023-05-07T11:58:43;2.95;;;1.65;;
22632;SDS011;11483;55.828;37.488;2023-05-07T12:01:10;1.85;;;1.40;;
22632;SDS011;11483;55.828;37.488;2023-05-07T12:03:37;1.67;;;1.52;;
22632;SDS011;11483;55.828;37.488;2023-05-07T12:06:07;3.83;;;1.58;;
22632;SDS011;11483;55.828;37.488;2023-05-07T12:08:36;7.25;;;1.40;;
22632;SDS011;11483;55.828;37.488;2023-05-07T12:11:03;1.40;;;1.10;;
22632;SDS011;11483;55.828;37.488;2023-05-07T12:13:31;0.88;;;0.88;;
22632;SDS011;11483;55.828;37.488;2023-05-07T12:15:57;1.90;;;1.20;;
22632;SDS011;11483;55.828;37.488;2023-05-07T12:18:23;1.80;;;1.40;;
22632;SDS011;11483;55.828;37.488;2023-05-07T12:20:50;4.60;;;1.60;;
22632;SDS011;11483;55.828;37.488;2023-05-07T12:23:16;1.73;;;1.60;;
22632;SDS011;11483;55.828;37.488;2023-05-07T12:25:43;2.00;;;1.42;;
22632;SDS011;11483;55.828;37.488;2023-05-07T12:28:18;4.10;;;1.30;;
22632;SDS011;11483;55.828;37.488;2023-05-07T12:30:48;1.77;;;1.60;;
22632;SDS011;11483;55.828;37.488;2023-05-07T12:33:19;1.45;;;1.30;;
22632;SDS011;11483;55.828;37.488;2023-05-07T12:35:49;3.60;;;1.70;;
22632;SDS011;11483;55.828;37.488;2023-05-07T12:38:16;1.63;;;1.50;;
22632;SDS011;11483;55.828;37.488;2023-05-07T12:40:55;4.45;;;1.55;;
22632;SDS011;11483;55.828;37.488;2023-05-07T12:43:24;1.90;;;1.48;;
22632;SDS011;11483;55.828;37.488;2023-05-07T12:45:53;2.58;;;1.23;;
22632;SDS011;11483;55.828;37.488;2023-05-07T12:48:21;2.25;;;1.50;;
22632;SDS011;11483;55.828;37.488;2023-05-07T12:50:51;2.65;;;1.58;;
22632;SDS011;11483;55.828;37.488;2023-05-07T12:53:19;8.40;;;1.45;;
22632;SDS011;11483;55.828;37.488;2023-05-07T12:55:47;1.38;;;1.27;;
22632;SDS011;11483;55.828;37.488;2023-05-07T13:00:54;1.92;;;1.75;;
22632;SDS011;11483;55.828;37.488;2023-05-07T13:03:30;2.33;;;1.60;;
22632;SDS011;11483;55.828;37.488;2023-05-07T13:05:58;2.20;;;1.40;;
22632;SDS011;11483;55.828;37.488;2023-05-07T13:08:31;2.40;;;1.50;;
22632;SDS011;11483;55.828;37.488;2023-05-07T13:11:08;1.65;;;1.20;;
22632;SDS011;11483;55.828;37.488;2023-05-07T13:13:36;1.60;;;1.42;;
22632;SDS011;11483;55.828;37.488;2023-05-07T13:16:02;3.75;;;1.77;;
22632;SDS011;11483;55.828;37.488;2023-05-07T13:18:30;2.47;;;1.55;;
22632;SDS011;11483;55.828;37.488;2023-05-07T13:20:57;1.95;;;1.50;;
22632;SDS011;11483;55.828;37.488;2023-05-07T13:23:23;3.47;;;1.77;;
22632;SDS011;11483;55.828;37.488;2023-05-07T13:25:50;2.15;;;1.38;;
22632;SDS011;11483;55.828;37.488;2023-05-07T13:28:17;2.10;;;1.25;;
22632;SDS011;11483;55.828;37.488;2023-05-07T13:30:43;1.80;;;1.30;;
22632;SDS011;11483;55.828;37.488;2023-05-07T13:33:09;4.13;;;1.45;;
22632;SDS011;11483;55.828;37.488;2023-05-07T13:35:35;2.03;;;1.73;;
22632;SDS011;11483;55.828;37.488;2023-05-07T13:38:01;2.22;;;1.73;;
22632;SDS011;11483;55.828;37.488;2023-05-07T13:40:27;2.95;;;1.80;;
22632;SDS011;11483;55.828;37.488;2023-05-07T13:42:53;4.90;;;1.70;;
22632;SDS011;11483;55.828;37.488;2023-05-07T13:45:19;2.90;;;1.95;;
22632;SDS011;11483;55.828;37.488;2023-05-07T13:47:45;1.80;;;1.67;;
22632;SDS011;11483;55.828;37.488;2023-05-07T13:50:11;2.85;;;1.83;;
22632;SDS011;11483;55.828;37.488;2023-05-07T13:52:41;4.43;;;1.90;;
22632;SDS011;11483;55.828;37.488;2023-05-07T13:55:11;1.98;;;1.58;;
22632;SDS011;11483;55.828;37.488;2023-05-07T13:57:37;3.08;;;1.52;;
22632;SDS011;11483;55.828;37.488;2023-05-07T14:00:04;2.65;;;1.20;;
22632;SDS011;11483;55.828;37.488;2023-05-07T14:02:30;3.35;;;1.23;;
22632;SDS011;11483;55.828;37.488;2023-05-07T14:04:56;2.85;;;1.38;;
22632;SDS011;11483;55.828;37.488;2023-05-07T14:07:22;2.90;;;1.63;;
22632;SDS011;11483;55.828;37.488;2023-05-07T14:09:48;2.90;;;1.60;;
22632;SDS011;11483;55.828;37.488;2023-05-07T14:12:14;2.47;;;1.08;;
22632;SDS011;11483;55.828;37.488;2023-05-07T14:14:40;2.35;;;1.70;;
22632;SDS011;11483;55.828;37.488;2023-05-07T14:17:06;9.25;;;5.00;;
22632;SDS011;11483;55.828;37.488;2023-05-07T14:19:33;4.88;;;1.90;;
22632;SDS011;11483;55.828;37.488;2023-05-07T14:21:59;1.98;;;1.70;;
22632;SDS011;11483;55.828;37.488;2023-05-07T14:24:25;3.08;;;1.70;;
22632;SDS011;11483;55.828;37.488;2023-05-07T14:26:51;3.10;;;1.63;;
22632;SDS011;11483;55.828;37.488;2023-05-07T14:29:17;6.05;;;1.90;;
22632;SDS011;11483;55.828;37.488;2023-05-07T14:31:44;3.92;;;1.88;;
22632;SDS011;11483;55.828;37.488;2023-05-07T14:37:45;2.72;;;1.80;;
22632;SDS011;11483;55.828;37.488;2023-05-07T14:40:10;4.78;;;1.55;;
22632;SDS011;11483;55.828;37.488;2023-05-07T14:42:36;1.42;;;1.30;;
22632;SDS011;11483;55.828;37.488;2023-05-07T14:45:02;4.15;;;1.50;;
22632;SDS011;11483;55.828;37.488;2023-05-07T14:47:29;3.90;;;1.40;;
22632;SDS011;11483;55.828;37.488;2023-05-07T14:49:55;4.05;;;1.63;;
22632;SDS011;11483;55.828;37.488;2023-05-07T14:52:22;1.95;;;1.65;;
22632;SDS011;11483;55.828;37.488;2023-05-07T14:54:48;7.43;;;1.98;;
22632;SDS011;11483;55.828;37.488;2023-05-07T14:57:14;2.85;;;1.75;;
22632;SDS011;11483;55.828;37.488;2023-05-07T14:59:41;4.95;;;1.63;;
22632;SDS011;11483;55.828;37.488;2023-05-07T15:02:07;1.95;;;1.60;;
22632;SDS011;11483;55.828;37.488;2023-05-07T15:04:35;2.70;;;1.80;;
22632;SDS011;11483;55.828;37.488;2023-05-07T15:07:01;2.58;;;1.55;;
22632;SDS011;11483;55.828;37.488;2023-05-07T15:09:27;2.30;;;1.80;;
22632;SDS011;11483;55.828;37.488;2023-05-07T15:11:53;2.75;;;1.52;;
22632;SDS011;11483;55.828;37.488;2023-05-07T15:14:18;2.65;;;1.80;;